sensor_id;sensor_type;location;lat;lon;timestamp;P1;durP1;ratioP1;P2;durP2;ratioP2
71648;SDS011;59492;45.638;11.714;2023-05-01T00:00:11;2.90;;;2.40;;
71648;SDS011;59492;45.638;11.714;2023-05-01T00:02:38;2.60;;;2.40;;
71648;SDS011;59492;45.638;11.714;2023-05-01T00:05:04;3.10;;;2.80;;
71648;SDS011;59492;45.638;11.714;2023-05-01T00:07:31;2.80;;;2.50;;
71648;SDS011;59492;45.638;11.714;2023-05-01T00:09:57;3.10;;;2.30;;
71648;SDS011;59492;45.638;11.714;2023-05-01T00:12:23;2.30;;;2.10;;
71648;SDS011;59492;45.638;11.714;2023-05-01T00:14:48;2.80;;;2.20;;
71648;SDS011;59492;45.638;11.714;2023-05-01T00:17:14;2.90;;;2.20;;
71648;SDS011;59492;45.638;11.714;2023-05-01T00:19:40;4.10;;;2.00;;
71648;SDS011;59492;45.638;11.714;2023-05-01T00:22:06;3.00;;;2.30;;
71648;SDS011;59492;45.638;11.714;2023-05-01T00:24:31;2.40;;;2.20;;
71648;SDS011;59492;45.638;11.714;2023-05-01T00:26:57;3.40;;;2.20;;
71648;SDS011;59492;45.638;11.714;2023-05-01T00:29:23;2.60;;;2.40;;
71648;SDS011;59492;45.638;11.714;2023-05-01T00:31:49;2.40;;;2.10;;
71648;SDS011;59492;45.638;11.714;2023-05-01T00:34:14;3.10;;;2.50;;
71648;SDS011;59492;45.638;11.714;2023-05-01T00:36:40;3.70;;;2.20;;
71648;SDS011;59492;45.638;11.714;2023-05-01T00:39:05;3.60;;;2.20;;
71648;SDS011;59492;45.638;11.714;2023-05-01T00:41:34;2.20;;;2.00;;
71648;SDS011;59492;45.638;11.714;2023-05-01T00:43:59;2.40;;;2.10;;
71648;SDS011;59492;45.638;11.714;2023-05-01T00:46:26;2.20;;;2.00;;
71648;SDS011;59492;45.638;11.714;2023-05-01T00:48:53;2.50;;;2.30;;
71648;SDS011;59492;45.638;11.714;2023-05-01T00:51:19;2.60;;;2.20;;
71648;SDS011;59492;45.638;11.714;2023-05-01T00:53:46;2.80;;;2.00;;
71648;SDS011;59492;45.638;11.714;2023-05-01T00:56:12;4.00;;;2.50;;
71648;SDS011;59492;45.638;11.714;2023-05-01T00:58:38;2.30;;;2.10;;
71648;SDS011;59492;45.638;11.714;2023-05-01T01:01:04;2.50;;;2.30;;
71648;SDS011;59492;45.638;11.714;2023-05-01T01:03:30;3.30;;;2.40;;
71648;SDS011;59492;45.638;11.714;2023-05-01T01:05:57;2.80;;;2.40;;
71648;SDS011;59492;45.638;11.714;2023-05-01T01:08:28;3.00;;;2.40;;
71648;SDS011;59492;45.638;11.714;2023-05-01T01:16:26;3.20;;;2.50;;
71648;SDS011;59492;45.638;11.714;2023-05-01T01:19:02;4.20;;;3.20;;
71648;SDS011;59492;45.638;11.714;2023-05-01T01:21:43;3.50;;;2.80;;
71648;SDS011;59492;45.638;11.714;2023-05-01T01:29:43;2.80;;;2.50;;
71648;SDS011;59492;45.638;11.714;2023-05-01T01:35:07;2.70;;;2.50;;
71648;SDS011;59492;45.638;11.714;2023-05-01T01:37:40;2.90;;;2.40;;
71648;SDS011;59492;45.638;11.714;2023-05-01T01:42:35;2.40;;;2.20;;
71648;SDS011;59492;45.638;11.714;2023-05-01T01:45:18;2.20;;;2.00;;
71648;SDS011;59492;45.638;11.714;2023-05-01T01:47:50;3.00;;;2.60;;
71648;SDS011;59492;45.638;11.714;2023-05-01T01:50:17;2.80;;;2.30;;
71648;SDS011;59492;45.638;11.714;2023-05-01T01:52:46;2.80;;;2.50;;
71648;SDS011;59492;45.638;11.714;2023-05-01T01:55:13;3.00;;;2.30;;
71648;SDS011;59492;45.638;11.714;2023-05-01T01:57:40;2.40;;;2.10;;
71648;SDS011;59492;45.638;11.714;2023-05-01T02:00:08;2.10;;;1.90;;
71648;SDS011;59492;45.638;11.714;2023-05-01T02:02:37;2.40;;;2.20;;
71648;SDS011;59492;45.638;11.714;2023-05-01T02:05:08;2.30;;;2.10;;
71648;SDS011;59492;45.638;11.714;2023-05-01T02:07:39;2.50;;;2.20;;
71648;SDS011;59492;45.638;11.714;2023-05-01T02:10:05;3.10;;;2.30;;
71648;SDS011;59492;45.638;11.714;2023-05-01T02:12:33;2.90;;;2.50;;
71648;SDS011;59492;45.638;11.714;2023-05-01T02:15:00;2.40;;;2.20;;
71648;SDS011;59492;45.638;11.714;2023-05-01T02:17:27;2.40;;;2.20;;
71648;SDS011;59492;45.638;11.714;2023-05-01T02:19:53;2.50;;;2.30;;
71648;SDS011;59492;45.638;11.714;2023-05-01T02:22:22;2.60;;;2.40;;
71648;SDS011;59492;45.638;11.714;2023-05-01T02:24:52;3.70;;;2.60;;
71648;SDS011;59492;45.638;11.714;2023-05-01T02:27:19;3.00;;;2.40;;
71648;SDS011;59492;45.638;11.714;2023-05-01T02:29:47;2.70;;;2.40;;
71648;SDS011;59492;45.638;11.714;2023-05-01T02:32:13;2.90;;;2.60;;
71648;SDS011;59492;45.638;11.714;2023-05-01T02:34:39;3.20;;;2.50;;
71648;SDS011;59492;45.638;11.714;2023-05-01T02:37:06;3.80;;;2.70;;
71648;SDS011;59492;45.638;11.714;2023-05-01T02:39:33;2.90;;;2.60;;
71648;SDS011;59492;45.638;11.714;2023-05-01T02:41:59;2.70;;;2.40;;
71648;SDS011;59492;45.638;11.714;2023-05-01T02:44:27;3.40;;;2.40;;
71648;SDS011;59492;45.638;11.714;2023-05-01T02:46:54;3.20;;;2.50;;
71648;SDS011;59492;45.638;11.714;2023-05-01T02:49:21;2.90;;;2.60;;
71648;SDS011;59492;45.638;11.714;2023-05-01T02:51:47;4.00;;;2.80;;
71648;SDS011;59492;45.638;11.714;2023-05-01T02:54:13;3.70;;;2.70;;
71648;SDS011;59492;45.638;11.714;2023-05-01T02:56:40;2.70;;;2.40;;
71648;SDS011;59492;45.638;11.714;2023-05-01T02:59:06;2.80;;;2.40;;
71648;SDS011;59492;45.638;11.714;2023-05-01T03:01:31;2.60;;;2.40;;
71648;SDS011;59492;45.638;11.714;2023-05-01T03:03:57;2.80;;;2.60;;
71648;SDS011;59492;45.638;11.714;2023-05-01T03:06:23;2.60;;;2.10;;
71648;SDS011;59492;45.638;11.714;2023-05-01T03:08:48;4.40;;;2.40;;
71648;SDS011;59492;45.638;11.714;2023-05-01T03:11:14;2.50;;;2.30;;
71648;SDS011;59492;45.638;11.714;2023-05-01T03:13:39;3.10;;;2.20;;
71648;SDS011;59492;45.638;11.714;2023-05-01T03:16:05;2.30;;;2.10;;
71648;SDS011;59492;45.638;11.714;2023-05-01T03:18:31;2.70;;;2.40;;
71648;SDS011;59492;45.638;11.714;2023-05-01T03:20:57;2.50;;;2.30;;
71648;SDS011;59492;45.638;11.714;2023-05-01T03:23:22;2.70;;;2.30;;
71648;SDS011;59492;45.638;11.714;2023-05-01T03:25:48;2.20;;;2.00;;
71648;SDS011;59492;45.638;11.714;2023-05-01T03:28:14;2.70;;;2.20;;
71648;SDS011;59492;45.638;11.714;2023-05-01T03:30:40;3.00;;;2.40;;
71648;SDS011;59492;45.638;11.714;2023-05-01T03:33:06;2.70;;;2.20;;
71648;SDS011;59492;45.638;11.714;2023-05-01T03:35:32;2.60;;;2.00;;
71648;SDS011;59492;45.638;11.714;2023-05-01T03:37:57;2.70;;;2.20;;
71648;SDS011;59492;45.638;11.714;2023-05-01T03:40:23;2.40;;;2.20;;
71648;SDS011;59492;45.638;11.714;2023-05-01T03:42:48;2.70;;;2.20;;
71648;SDS011;59492;45.638;11.714;2023-05-01T03:45:14;2.60;;;2.30;;
71648;SDS011;59492;45.638;11.714;2023-05-01T03:47:40;3.20;;;2.10;;
71648;SDS011;59492;45.638;11.714;2023-05-01T03:50:05;2.60;;;2.20;;
71648;SDS011;59492;45.638;11.714;2023-05-01T03:52:32;2.40;;;2.20;;
71648;SDS011;59492;45.638;11.714;2023-05-01T03:54:58;2.50;;;2.10;;
71648;SDS011;59492;45.638;11.714;2023-05-01T03:57:24;3.10;;;2.60;;
71648;SDS011;59492;45.638;11.714;2023-05-01T03:59:49;3.20;;;2.30;;
71648;SDS011;59492;45.638;11.714;2023-05-01T04:02:15;2.30;;;2.10;;
71648;SDS011;59492;45.638;11.714;2023-05-01T04:04:40;2.70;;;2.30;;
71648;SDS011;59492;45.638;11.714;2023-05-01T04:07:06;2.50;;;2.30;;
71648;SDS011;59492;45.638;11.714;2023-05-01T04:09:32;2.60;;;2.40;;
71648;SDS011;59492;45.638;11.714;2023-05-01T04:11:57;2.50;;;2.30;;
71648;SDS011;59492;45.638;11.714;2023-05-01T04:14:23;3.30;;;2.30;;
71648;SDS011;59492;45.638;11.714;2023-05-01T04:16:49;2.80;;;2.50;;
71648;SDS011;59492;45.638;11.714;2023-05-01T04:19:15;2.50;;;2.30;;
71648;SDS011;59492;45.638;11.714;2023-05-01T04:21:41;2.70;;;2.20;;
71648;SDS011;59492;45.638;11.714;2023-05-01T04:24:06;2.30;;;1.90;;
71648;SDS011;59492;45.638;11.714;2023-05-01T04:26:32;2.40;;;2.10;;
71648;SDS011;59492;45.638;11.714;2023-05-01T04:28:58;2.70;;;2.50;;
71648;SDS011;59492;45.638;11.714;2023-05-01T04:31:24;2.70;;;2.50;;
71648;SDS011;59492;45.638;11.714;2023-05-01T04:33:50;3.40;;;2.10;;
71648;SDS011;59492;45.638;11.714;2023-05-01T04:36:16;2.50;;;2.20;;
71648;SDS011;59492;45.638;11.714;2023-05-01T04:38:42;2.20;;;2.00;;
71648;SDS011;59492;45.638;11.714;2023-05-01T04:41:08;3.50;;;2.40;;
71648;SDS011;59492;45.638;11.714;2023-05-01T04:43:33;3.00;;;2.30;;
71648;SDS011;59492;45.638;11.714;2023-05-01T04:45:59;5.10;;;2.30;;
71648;SDS011;59492;45.638;11.714;2023-05-01T04:48:25;2.60;;;2.20;;
71648;SDS011;59492;45.638;11.714;2023-05-01T04:50:50;3.20;;;2.20;;
71648;SDS011;59492;45.638;11.714;2023-05-01T04:53:16;2.60;;;2.00;;
71648;SDS011;59492;45.638;11.714;2023-05-01T04:55:42;3.40;;;2.20;;
71648;SDS011;59492;45.638;11.714;2023-05-01T04:58:08;4.50;;;2.30;;
71648;SDS011;59492;45.638;11.714;2023-05-01T05:00:33;4.80;;;2.30;;
71648;SDS011;59492;45.638;11.714;2023-05-01T05:02:59;7.90;;;2.20;;
71648;SDS011;59492;45.638;11.714;2023-05-01T05:05:25;3.60;;;2.20;;
71648;SDS011;59492;45.638;11.714;2023-05-01T05:07:50;3.80;;;2.40;;
71648;SDS011;59492;45.638;11.714;2023-05-01T05:10:16;3.80;;;1.90;;
71648;SDS011;59492;45.638;11.714;2023-05-01T05:12:41;2.00;;;1.80;;
71648;SDS011;59492;45.638;11.714;2023-05-01T05:15:07;3.10;;;2.00;;
71648;SDS011;59492;45.638;11.714;2023-05-01T05:17:33;2.70;;;2.10;;
71648;SDS011;59492;45.638;11.714;2023-05-01T05:19:58;2.80;;;2.00;;
71648;SDS011;59492;45.638;11.714;2023-05-01T05:22:24;2.90;;;2.10;;
71648;SDS011;59492;45.638;11.714;2023-05-01T05:24:53;2.50;;;2.00;;
71648;SDS011;59492;45.638;11.714;2023-05-01T05:27:28;2.20;;;1.90;;
71648;SDS011;59492;45.638;11.714;2023-05-01T05:29:54;3.60;;;1.90;;
71648;SDS011;59492;45.638;11.714;2023-05-01T05:32:20;3.70;;;2.00;;
71648;SDS011;59492;45.638;11.714;2023-05-01T05:34:46;3.30;;;2.00;;
71648;SDS011;59492;45.638;11.714;2023-05-01T05:37:11;3.10;;;2.00;;
71648;SDS011;59492;45.638;11.714;2023-05-01T05:39:37;3.90;;;2.00;;
71648;SDS011;59492;45.638;11.714;2023-05-01T05:42:02;2.50;;;2.00;;
71648;SDS011;59492;45.638;11.714;2023-05-01T05:44:28;3.00;;;2.10;;
71648;SDS011;59492;45.638;11.714;2023-05-01T05:46:56;4.10;;;2.30;;
71648;SDS011;59492;45.638;11.714;2023-05-01T05:49:21;2.10;;;1.90;;
71648;SDS011;59492;45.638;11.714;2023-05-01T05:51:47;2.90;;;2.10;;
71648;SDS011;59492;45.638;11.714;2023-05-01T05:54:12;2.60;;;2.20;;
71648;SDS011;59492;45.638;11.714;2023-05-01T05:56:40;6.50;;;2.20;;
71648;SDS011;59492;45.638;11.714;2023-05-01T05:59:06;3.50;;;2.70;;
71648;SDS011;59492;45.638;11.714;2023-05-01T06:01:32;2.90;;;2.30;;
71648;SDS011;59492;45.638;11.714;2023-05-01T06:03:58;4.30;;;2.30;;
71648;SDS011;59492;45.638;11.714;2023-05-01T06:06:23;34.60;;;3.60;;
71648;SDS011;59492;45.638;11.714;2023-05-01T06:08:49;15.80;;;2.70;;
71648;SDS011;59492;45.638;11.714;2023-05-01T06:11:14;22.20;;;3.30;;
71648;SDS011;59492;45.638;11.714;2023-05-01T06:13:40;16.90;;;3.40;;
71648;SDS011;59492;45.638;11.714;2023-05-01T06:16:06;16.40;;;3.00;;
71648;SDS011;59492;45.638;11.714;2023-05-01T06:18:32;37.90;;;3.50;;
71648;SDS011;59492;45.638;11.714;2023-05-01T06:20:57;28.00;;;3.30;;
71648;SDS011;59492;45.638;11.714;2023-05-01T06:23:24;13.70;;;3.60;;
71648;SDS011;59492;45.638;11.714;2023-05-01T06:25:50;25.60;;;2.70;;
71648;SDS011;59492;45.638;11.714;2023-05-01T06:28:15;19.90;;;3.30;;
71648;SDS011;59492;45.638;11.714;2023-05-01T06:30:41;13.10;;;3.00;;
71648;SDS011;59492;45.638;11.714;2023-05-01T06:33:06;7.60;;;2.50;;
71648;SDS011;59492;45.638;11.714;2023-05-01T06:35:34;7.60;;;3.00;;
71648;SDS011;59492;45.638;11.714;2023-05-01T06:37:59;10.20;;;2.80;;
71648;SDS011;59492;45.638;11.714;2023-05-01T06:40:25;9.70;;;2.80;;
71648;SDS011;59492;45.638;11.714;2023-05-01T06:42:50;9.10;;;3.10;;
71648;SDS011;59492;45.638;11.714;2023-05-01T06:45:16;10.90;;;3.20;;
71648;SDS011;59492;45.638;11.714;2023-05-01T06:47:41;11.50;;;2.80;;
71648;SDS011;59492;45.638;11.714;2023-05-01T06:50:07;11.60;;;3.10;;
71648;SDS011;59492;45.638;11.714;2023-05-01T06:52:33;5.90;;;2.90;;
71648;SDS011;59492;45.638;11.714;2023-05-01T06:54:59;12.60;;;2.80;;
71648;SDS011;59492;45.638;11.714;2023-05-01T06:57:25;6.80;;;3.30;;
71648;SDS011;59492;45.638;11.714;2023-05-01T06:59:51;10.30;;;3.30;;
71648;SDS011;59492;45.638;11.714;2023-05-01T07:02:16;6.80;;;3.20;;
71648;SDS011;59492;45.638;11.714;2023-05-01T07:04:51;9.90;;;3.80;;
71648;SDS011;59492;45.638;11.714;2023-05-01T07:07:17;5.70;;;2.80;;
71648;SDS011;59492;45.638;11.714;2023-05-01T07:09:43;8.20;;;3.10;;
71648;SDS011;59492;45.638;11.714;2023-05-01T07:12:09;6.40;;;3.20;;
71648;SDS011;59492;45.638;11.714;2023-05-01T07:14:34;7.30;;;3.70;;
71648;SDS011;59492;45.638;11.714;2023-05-01T07:17:00;5.90;;;3.00;;
71648;SDS011;59492;45.638;11.714;2023-05-01T07:19:26;8.30;;;3.00;;
71648;SDS011;59492;45.638;11.714;2023-05-01T07:21:52;9.90;;;3.60;;
71648;SDS011;59492;45.638;11.714;2023-05-01T07:24:18;4.80;;;3.50;;
71648;SDS011;59492;45.638;11.714;2023-05-01T07:26:44;5.90;;;3.50;;
71648;SDS011;59492;45.638;11.714;2023-05-01T07:29:10;5.50;;;3.60;;
71648;SDS011;59492;45.638;11.714;2023-05-01T07:31:37;5.30;;;3.10;;
71648;SDS011;59492;45.638;11.714;2023-05-01T07:34:03;4.70;;;2.70;;
71648;SDS011;59492;45.638;11.714;2023-05-01T07:36:28;6.80;;;3.30;;
71648;SDS011;59492;45.638;11.714;2023-05-01T07:38:54;5.00;;;3.00;;
71648;SDS011;59492;45.638;11.714;2023-05-01T07:41:22;6.60;;;3.30;;
71648;SDS011;59492;45.638;11.714;2023-05-01T07:43:49;6.00;;;2.90;;
71648;SDS011;59492;45.638;11.714;2023-05-01T07:46:15;7.20;;;3.20;;
71648;SDS011;59492;45.638;11.714;2023-05-01T07:48:41;14.90;;;3.20;;
71648;SDS011;59492;45.638;11.714;2023-05-01T07:51:08;5.40;;;3.30;;
71648;SDS011;59492;45.638;11.714;2023-05-01T07:53:33;5.90;;;3.00;;
71648;SDS011;59492;45.638;11.714;2023-05-01T07:56:04;7.30;;;3.10;;
71648;SDS011;59492;45.638;11.714;2023-05-01T07:58:31;8.60;;;3.00;;
71648;SDS011;59492;45.638;11.714;2023-05-01T08:00:57;7.30;;;3.00;;
71648;SDS011;59492;45.638;11.714;2023-05-01T08:03:26;5.70;;;3.10;;
71648;SDS011;59492;45.638;11.714;2023-05-01T08:05:53;7.40;;;3.30;;
71648;SDS011;59492;45.638;11.714;2023-05-01T08:08:19;4.10;;;2.80;;
71648;SDS011;59492;45.638;11.714;2023-05-01T08:10:45;6.70;;;2.80;;
71648;SDS011;59492;45.638;11.714;2023-05-01T08:13:13;6.30;;;3.40;;
71648;SDS011;59492;45.638;11.714;2023-05-01T08:15:39;8.50;;;3.00;;
71648;SDS011;59492;45.638;11.714;2023-05-01T08:18:25;5.80;;;3.10;;
71648;SDS011;59492;45.638;11.714;2023-05-01T08:20:51;3.20;;;2.80;;
71648;SDS011;59492;45.638;11.714;2023-05-01T08:23:17;7.20;;;3.20;;
71648;SDS011;59492;45.638;11.714;2023-05-01T08:25:47;6.70;;;3.00;;
71648;SDS011;59492;45.638;11.714;2023-05-01T08:28:15;6.70;;;2.80;;
71648;SDS011;59492;45.638;11.714;2023-05-01T08:30:46;3.30;;;2.70;;
71648;SDS011;59492;45.638;11.714;2023-05-01T08:33:14;4.10;;;3.10;;
71648;SDS011;59492;45.638;11.714;2023-05-01T08:35:49;4.10;;;2.80;;
71648;SDS011;59492;45.638;11.714;2023-05-01T08:38:16;4.50;;;3.00;;
71648;SDS011;59492;45.638;11.714;2023-05-01T08:40:43;3.80;;;2.90;;
71648;SDS011;59492;45.638;11.714;2023-05-01T08:43:16;5.80;;;3.20;;
71648;SDS011;59492;45.638;11.714;2023-05-01T08:45:42;4.90;;;3.20;;
71648;SDS011;59492;45.638;11.714;2023-05-01T08:48:08;7.90;;;3.10;;
71648;SDS011;59492;45.638;11.714;2023-05-01T08:50:35;5.50;;;3.20;;
71648;SDS011;59492;45.638;11.714;2023-05-01T08:53:01;5.50;;;3.20;;
71648;SDS011;59492;45.638;11.714;2023-05-01T08:55:29;6.00;;;3.20;;
71648;SDS011;59492;45.638;11.714;2023-05-01T08:57:57;9.50;;;2.80;;
71648;SDS011;59492;45.638;11.714;2023-05-01T09:00:24;11.50;;;3.30;;
71648;SDS011;59492;45.638;11.714;2023-05-01T09:02:50;14.00;;;3.20;;
71648;SDS011;59492;45.638;11.714;2023-05-01T09:05:19;4.60;;;3.30;;
71648;SDS011;59492;45.638;11.714;2023-05-01T09:07:45;7.00;;;3.60;;
71648;SDS011;59492;45.638;11.714;2023-05-01T09:10:12;14.00;;;3.60;;
71648;SDS011;59492;45.638;11.714;2023-05-01T09:12:39;12.30;;;4.00;;
71648;SDS011;59492;45.638;11.714;2023-05-01T09:15:09;13.90;;;3.30;;
71648;SDS011;59492;45.638;11.714;2023-05-01T09:17:36;11.60;;;3.40;;
71648;SDS011;59492;45.638;11.714;2023-05-01T09:20:06;8.60;;;3.30;;
71648;SDS011;59492;45.638;11.714;2023-05-01T09:22:34;8.30;;;3.30;;
71648;SDS011;59492;45.638;11.714;2023-05-01T09:25:05;11.80;;;3.50;;
71648;SDS011;59492;45.638;11.714;2023-05-01T09:27:34;14.30;;;3.90;;
71648;SDS011;59492;45.638;11.714;2023-05-01T09:30:00;9.60;;;3.70;;
71648;SDS011;59492;45.638;11.714;2023-05-01T09:32:26;10.00;;;3.50;;
71648;SDS011;59492;45.638;11.714;2023-05-01T09:35:07;9.10;;;3.30;;
71648;SDS011;59492;45.638;11.714;2023-05-01T09:37:35;6.40;;;3.10;;
71648;SDS011;59492;45.638;11.714;2023-05-01T09:40:14;8.30;;;3.80;;
71648;SDS011;59492;45.638;11.714;2023-05-01T09:42:46;7.70;;;3.50;;
71648;SDS011;59492;45.638;11.714;2023-05-01T09:45:15;7.50;;;3.20;;
71648;SDS011;59492;45.638;11.714;2023-05-01T09:47:43;9.00;;;3.50;;
71648;SDS011;59492;45.638;11.714;2023-05-01T09:50:30;6.70;;;3.60;;
71648;SDS011;59492;45.638;11.714;2023-05-01T09:53:12;5.00;;;2.90;;
71648;SDS011;59492;45.638;11.714;2023-05-01T09:55:58;5.40;;;3.40;;
71648;SDS011;59492;45.638;11.714;2023-05-01T09:58:53;7.10;;;3.40;;
71648;SDS011;59492;45.638;11.714;2023-05-01T10:04:35;6.80;;;3.30;;
71648;SDS011;59492;45.638;11.714;2023-05-01T10:07:11;8.50;;;3.10;;
71648;SDS011;59492;45.638;11.714;2023-05-01T10:09:37;11.20;;;3.60;;
71648;SDS011;59492;45.638;11.714;2023-05-01T10:12:03;9.20;;;3.00;;
71648;SDS011;59492;45.638;11.714;2023-05-01T10:14:31;10.50;;;3.30;;
71648;SDS011;59492;45.638;11.714;2023-05-01T10:17:15;7.00;;;3.80;;
71648;SDS011;59492;45.638;11.714;2023-05-01T10:19:43;5.50;;;3.30;;
71648;SDS011;59492;45.638;11.714;2023-05-01T10:22:12;6.30;;;3.90;;
71648;SDS011;59492;45.638;11.714;2023-05-01T10:24:38;8.30;;;3.50;;
71648;SDS011;59492;45.638;11.714;2023-05-01T10:27:05;15.60;;;5.00;;
71648;SDS011;59492;45.638;11.714;2023-05-01T10:29:34;9.30;;;4.60;;
71648;SDS011;59492;45.638;11.714;2023-05-01T10:32:02;10.80;;;4.70;;
71648;SDS011;59492;45.638;11.714;2023-05-01T10:34:28;13.40;;;4.50;;
71648;SDS011;59492;45.638;11.714;2023-05-01T10:36:59;22.10;;;6.30;;
71648;SDS011;59492;45.638;11.714;2023-05-01T10:39:35;14.00;;;5.70;;
71648;SDS011;59492;45.638;11.714;2023-05-01T10:42:07;17.50;;;5.20;;
71648;SDS011;59492;45.638;11.714;2023-05-01T10:44:42;13.30;;;6.20;;
71648;SDS011;59492;45.638;11.714;2023-05-01T10:50:05;21.00;;;6.80;;
71648;SDS011;59492;45.638;11.714;2023-05-01T10:55:35;17.30;;;7.50;;
71648;SDS011;59492;45.638;11.714;2023-05-01T10:58:02;18.30;;;6.00;;
71648;SDS011;59492;45.638;11.714;2023-05-01T11:00:28;21.20;;;6.40;;
71648;SDS011;59492;45.638;11.714;2023-05-01T11:08:31;17.00;;;7.70;;
71648;SDS011;59492;45.638;11.714;2023-05-01T11:11:43;17.20;;;7.60;;
71648;SDS011;59492;45.638;11.714;2023-05-01T11:19:11;19.80;;;7.50;;
71648;SDS011;59492;45.638;11.714;2023-05-01T11:21:59;25.00;;;7.30;;
71648;SDS011;59492;45.638;11.714;2023-05-01T11:24:33;16.80;;;7.30;;
71648;SDS011;59492;45.638;11.714;2023-05-01T11:27:00;18.20;;;7.70;;
71648;SDS011;59492;45.638;11.714;2023-05-01T11:29:32;16.60;;;6.80;;
71648;SDS011;59492;45.638;11.714;2023-05-01T11:32:00;17.50;;;7.10;;
71648;SDS011;59492;45.638;11.714;2023-05-01T11:34:26;14.30;;;7.10;;
71648;SDS011;59492;45.638;11.714;2023-05-01T11:36:53;18.70;;;7.80;;
71648;SDS011;59492;45.638;11.714;2023-05-01T11:39:18;12.70;;;7.00;;
71648;SDS011;59492;45.638;11.714;2023-05-01T11:41:44;15.70;;;6.80;;
71648;SDS011;59492;45.638;11.714;2023-05-01T11:44:11;16.70;;;7.10;;
71648;SDS011;59492;45.638;11.714;2023-05-01T11:46:39;14.10;;;6.50;;
71648;SDS011;59492;45.638;11.714;2023-05-01T11:49:04;22.10;;;7.20;;
71648;SDS011;59492;45.638;11.714;2023-05-01T11:51:30;14.00;;;6.70;;
71648;SDS011;59492;45.638;11.714;2023-05-01T11:54:00;16.30;;;6.50;;
71648;SDS011;59492;45.638;11.714;2023-05-01T11:56:29;13.10;;;6.40;;
71648;SDS011;59492;45.638;11.714;2023-05-01T11:58:56;15.50;;;6.10;;
71648;SDS011;59492;45.638;11.714;2023-05-01T12:01:33;12.50;;;6.00;;
71648;SDS011;59492;45.638;11.714;2023-05-01T12:04:03;11.10;;;5.60;;
71648;SDS011;59492;45.638;11.714;2023-05-01T12:06:40;14.90;;;6.60;;
71648;SDS011;59492;45.638;11.714;2023-05-01T12:09:15;12.40;;;5.90;;
71648;SDS011;59492;45.638;11.714;2023-05-01T12:11:45;15.60;;;6.30;;
71648;SDS011;59492;45.638;11.714;2023-05-01T12:14:15;12.40;;;6.00;;
71648;SDS011;59492;45.638;11.714;2023-05-01T12:16:43;15.00;;;6.70;;
71648;SDS011;59492;45.638;11.714;2023-05-01T12:19:21;12.40;;;5.60;;
71648;SDS011;59492;45.638;11.714;2023-05-01T12:22:05;10.40;;;6.50;;
71648;SDS011;59492;45.638;11.714;2023-05-01T12:24:31;14.10;;;6.10;;
71648;SDS011;59492;45.638;11.714;2023-05-01T12:27:00;11.10;;;5.90;;
71648;SDS011;59492;45.638;11.714;2023-05-01T12:29:25;12.90;;;5.10;;
71648;SDS011;59492;45.638;11.714;2023-05-01T12:32:04;14.10;;;5.40;;
71648;SDS011;59492;45.638;11.714;2023-05-01T12:34:29;12.00;;;4.90;;
71648;SDS011;59492;45.638;11.714;2023-05-01T12:37:01;10.90;;;5.00;;
71648;SDS011;59492;45.638;11.714;2023-05-01T12:39:34;8.40;;;4.50;;
71648;SDS011;59492;45.638;11.714;2023-05-01T12:42:03;10.50;;;4.70;;
71648;SDS011;59492;45.638;11.714;2023-05-01T12:45:09;10.10;;;5.30;;
71648;SDS011;59492;45.638;11.714;2023-05-01T12:47:48;9.10;;;4.90;;
71648;SDS011;59492;45.638;11.714;2023-05-01T12:50:15;7.10;;;4.90;;
71648;SDS011;59492;45.638;11.714;2023-05-01T12:52:41;10.00;;;4.50;;
71648;SDS011;59492;45.638;11.714;2023-05-01T12:55:07;10.10;;;4.70;;
71648;SDS011;59492;45.638;11.714;2023-05-01T12:57:49;11.40;;;4.80;;
71648;SDS011;59492;45.638;11.714;2023-05-01T13:00:15;9.00;;;4.50;;
71648;SDS011;59492;45.638;11.714;2023-05-01T13:02:42;7.60;;;4.50;;
71648;SDS011;59492;45.638;11.714;2023-05-01T13:05:30;9.90;;;4.90;;
71648;SDS011;59492;45.638;11.714;2023-05-01T13:08:03;7.60;;;4.10;;
71648;SDS011;59492;45.638;11.714;2023-05-01T13:10:33;7.60;;;4.00;;
71648;SDS011;59492;45.638;11.714;2023-05-01T13:12:59;9.00;;;4.80;;
71648;SDS011;59492;45.638;11.714;2023-05-01T13:15:42;6.90;;;4.00;;
71648;SDS011;59492;45.638;11.714;2023-05-01T13:18:50;8.20;;;4.00;;
71648;SDS011;59492;45.638;11.714;2023-05-01T13:21:22;9.40;;;4.20;;
71648;SDS011;59492;45.638;11.714;2023-05-01T13:23:58;12.20;;;6.70;;
71648;SDS011;59492;45.638;11.714;2023-05-01T13:26:28;16.70;;;8.10;;
71648;SDS011;59492;45.638;11.714;2023-05-01T13:29:02;19.80;;;9.20;;
71648;SDS011;59492;45.638;11.714;2023-05-01T13:31:30;14.70;;;7.40;;
71648;SDS011;59492;45.638;11.714;2023-05-01T13:33:59;16.30;;;8.90;;
71648;SDS011;59492;45.638;11.714;2023-05-01T13:36:25;17.90;;;9.20;;
71648;SDS011;59492;45.638;11.714;2023-05-01T13:38:56;18.30;;;9.60;;
71648;SDS011;59492;45.638;11.714;2023-05-01T13:41:29;16.50;;;8.00;;
71648;SDS011;59492;45.638;11.714;2023-05-01T13:43:55;14.00;;;7.40;;
71648;SDS011;59492;45.638;11.714;2023-05-01T13:46:21;11.60;;;7.00;;
71648;SDS011;59492;45.638;11.714;2023-05-01T13:48:50;16.00;;;6.10;;
71648;SDS011;59492;45.638;11.714;2023-05-01T13:51:20;11.00;;;5.40;;
71648;SDS011;59492;45.638;11.714;2023-05-01T13:53:49;8.40;;;5.50;;
71648;SDS011;59492;45.638;11.714;2023-05-01T13:56:18;8.90;;;5.30;;
71648;SDS011;59492;45.638;11.714;2023-05-01T13:58:44;9.90;;;5.00;;
71648;SDS011;59492;45.638;11.714;2023-05-01T14:01:13;12.70;;;6.30;;
71648;SDS011;59492;45.638;11.714;2023-05-01T14:03:41;9.70;;;5.40;;
71648;SDS011;59492;45.638;11.714;2023-05-01T14:06:15;8.60;;;5.00;;
71648;SDS011;59492;45.638;11.714;2023-05-01T14:08:42;12.80;;;5.80;;
71648;SDS011;59492;45.638;11.714;2023-05-01T14:11:09;11.10;;;6.50;;
71648;SDS011;59492;45.638;11.714;2023-05-01T14:13:40;12.40;;;6.60;;
71648;SDS011;59492;45.638;11.714;2023-05-01T14:16:16;11.20;;;5.50;;
71648;SDS011;59492;45.638;11.714;2023-05-01T14:18:46;8.20;;;4.90;;
71648;SDS011;59492;45.638;11.714;2023-05-01T14:21:13;7.50;;;4.50;;
71648;SDS011;59492;45.638;11.714;2023-05-01T14:23:39;11.10;;;5.70;;
71648;SDS011;59492;45.638;11.714;2023-05-01T14:26:09;15.00;;;6.10;;
71648;SDS011;59492;45.638;11.714;2023-05-01T14:28:40;9.20;;;5.10;;
71648;SDS011;59492;45.638;11.714;2023-05-01T14:31:07;8.20;;;5.00;;
71648;SDS011;59492;45.638;11.714;2023-05-01T14:33:34;9.30;;;5.60;;
71648;SDS011;59492;45.638;11.714;2023-05-01T14:36:05;9.10;;;4.40;;
71648;SDS011;59492;45.638;11.714;2023-05-01T14:38:36;9.20;;;5.10;;
71648;SDS011;59492;45.638;11.714;2023-05-01T14:41:06;9.00;;;5.10;;
71648;SDS011;59492;45.638;11.714;2023-05-01T14:43:37;12.80;;;5.20;;
71648;SDS011;59492;45.638;11.714;2023-05-01T14:46:34;7.60;;;4.60;;
71648;SDS011;59492;45.638;11.714;2023-05-01T14:49:02;7.70;;;4.10;;
71648;SDS011;59492;45.638;11.714;2023-05-01T14:51:28;6.80;;;4.50;;
71648;SDS011;59492;45.638;11.714;2023-05-01T14:53:58;9.60;;;4.50;;
71648;SDS011;59492;45.638;11.714;2023-05-01T14:56:24;12.60;;;4.60;;
71648;SDS011;59492;45.638;11.714;2023-05-01T14:58:50;8.80;;;4.80;;
71648;SDS011;59492;45.638;11.714;2023-05-01T15:01:15;11.40;;;4.60;;
71648;SDS011;59492;45.638;11.714;2023-05-01T15:03:42;21.40;;;5.20;;
71648;SDS011;59492;45.638;11.714;2023-05-01T15:06:19;8.00;;;4.50;;
71648;SDS011;59492;45.638;11.714;2023-05-01T15:08:48;8.10;;;4.70;;
71648;SDS011;59492;45.638;11.714;2023-05-01T15:11:14;6.90;;;3.90;;
71648;SDS011;59492;45.638;11.714;2023-05-01T15:13:43;10.50;;;4.30;;